RPA4429 KPWM-KPHL
Flight info
| Callsign | RPA4429 |
|---|---|
| Flight time | 1h 11m |
| Altitude | 32000 |
| Route | NUBLE4 JJIMY ORW RIFLE Q439 BRIGS JIIMS4 |
| Aircraft | E75L/M-SDE3GILORVW/S |
Departure
| Time | 2026-05-03 23:43 |
|---|---|
| Airport | Portland International Jetport (KPWM) |
Arrival
| Time | 2026-05-04 00:55 |
|---|---|
| Airport | Philadelphia International Airport (KPHL) |
| Time | Latitude | Longitude | Altitude | Speed | Heading |
|---|---|---|---|---|---|
| 2026-05-03 23:17 | 43.64661 | -70.30894 | 64 ft | 0 kts | 353° |
| 2026-05-03 23:38 | 43.64643 | -70.30891 | 64 ft | 4 kts | 354° |
| 2026-05-03 23:38 | 43.64616 | -70.30889 | 57 ft | 4 kts | 3° |
| 2026-05-03 23:39 | 43.64591 | -70.30898 | 62 ft | 4 kts | 36° |
| 2026-05-03 23:39 | 43.64583 | -70.30917 | 55 ft | 0 kts | 95° |
| 2026-05-03 23:40 | 43.64580 | -70.30874 | 60 ft | 8 kts | 95° |
| 2026-05-03 23:41 | 43.64574 | -70.30777 | 57 ft | 12 kts | 96° |
| 2026-05-03 23:41 | 43.64564 | -70.30653 | 63 ft | 14 kts | 95° |
| 2026-05-03 23:41 | 43.64557 | -70.30491 | 57 ft | 19 kts | 91° |
| 2026-05-03 23:41 | 43.64581 | -70.30292 | 56 ft | 22 kts | 81° |
| 2026-05-03 23:42 | 43.64577 | -70.30088 | 53 ft | 16 kts | 95° |
| 2026-05-03 23:42 | 43.64550 | -70.29937 | 51 ft | 15 kts | 140° |
| 2026-05-03 23:42 | 43.64442 | -70.29920 | 53 ft | 16 kts | 194° |
| 2026-05-03 23:42 | 43.64412 | -70.29985 | 53 ft | 0 kts | 272° |
| 2026-05-03 23:43 | 43.64418 | -70.30096 | 53 ft | 45 kts | 275° |
| 2026-05-03 23:43 | 43.64473 | -70.30936 | 61 ft | 129 kts | 275° |
| 2026-05-03 23:43 | 43.64580 | -70.32364 | 544 ft | 165 kts | 278° |
| 2026-05-03 23:43 | 43.64694 | -70.34072 | 1228 ft | 197 kts | 276° |
| 2026-05-03 23:44 | 43.64791 | -70.35923 | 1948 ft | 180 kts | 277° |
| 2026-05-03 23:44 | 43.64807 | -70.37587 | 2304 ft | 170 kts | 271° |
| 2026-05-03 23:44 | 43.64766 | -70.39187 | 2883 ft | 166 kts | 277° |
| 2026-05-03 23:44 | 43.64846 | -70.40776 | 3561 ft | 170 kts | 279° |
| 2026-05-03 23:45 | 43.64945 | -70.42477 | 4111 ft | 186 kts | 278° |
| 2026-05-03 23:45 | 43.64822 | -70.44397 | 4522 ft | 218 kts | 257° |
| 2026-05-03 23:45 | 43.64007 | -70.46314 | 5022 ft | 249 kts | 232° |
| 2026-05-03 23:45 | 43.62597 | -70.47874 | 5644 ft | 267 kts | 221° |
| 2026-05-03 23:46 | 43.61070 | -70.49322 | 6474 ft | 271 kts | 220° |
| 2026-05-03 23:46 | 43.59502 | -70.50783 | 7281 ft | 273 kts | 220° |
| 2026-05-03 23:46 | 43.57915 | -70.52242 | 8038 ft | 276 kts | 219° |
| 2026-05-03 23:46 | 43.56293 | -70.53699 | 8747 ft | 279 kts | 218° |
| 2026-05-03 23:47 | 43.54651 | -70.55144 | 9509 ft | 282 kts | 218° |
| 2026-05-03 23:47 | 43.52966 | -70.56558 | 10182 ft | 287 kts | 214° |
| 2026-05-03 23:47 | 43.51051 | -70.57664 | 10475 ft | 309 kts | 203° |
| 2026-05-03 23:47 | 43.48942 | -70.58518 | 10913 ft | 320 kts | 201° |
| 2026-05-03 23:48 | 43.46820 | -70.59365 | 11579 ft | 323 kts | 202° |
| 2026-05-03 23:48 | 43.44657 | -70.60264 | 12309 ft | 326 kts | 202° |
| 2026-05-03 23:48 | 43.42459 | -70.61171 | 12878 ft | 337 kts | 202° |
| 2026-05-03 23:48 | 43.40150 | -70.62122 | 13195 ft | 354 kts | 201° |
| 2026-05-03 23:49 | 43.37766 | -70.63090 | 13819 ft | 360 kts | 201° |
| 2026-05-03 23:49 | 43.35354 | -70.64078 | 14513 ft | 363 kts | 202° |
| 2026-05-03 23:49 | 43.32922 | -70.65068 | 15221 ft | 367 kts | 202° |
| 2026-05-03 23:49 | 43.30461 | -70.66071 | 15937 ft | 371 kts | 202° |
| 2026-05-03 23:50 | 43.28007 | -70.67064 | 16606 ft | 375 kts | 202° |
| 2026-05-03 23:50 | 43.25488 | -70.68085 | 17264 ft | 380 kts | 202° |
| 2026-05-03 23:50 | 43.22937 | -70.69115 | 17920 ft | 385 kts | 202° |
| 2026-05-03 23:50 | 43.20356 | -70.70154 | 18523 ft | 388 kts | 202° |
| 2026-05-03 23:51 | 43.17748 | -70.71202 | 19102 ft | 392 kts | 202° |
| 2026-05-03 23:51 | 43.15214 | -70.72527 | 19642 ft | 389 kts | 211° |
| 2026-05-03 23:51 | 43.12813 | -70.74236 | 20203 ft | 390 kts | 215° |
| 2026-05-03 23:51 | 43.10420 | -70.76019 | 20758 ft | 393 kts | 214° |
| 2026-05-03 23:52 | 43.08001 | -70.77798 | 21295 ft | 397 kts | 214° |
| 2026-05-03 23:52 | 43.05549 | -70.79579 | 21851 ft | 401 kts | 214° |
| 2026-05-03 23:52 | 43.03107 | -70.81338 | 22390 ft | 404 kts | 214° |
| 2026-05-03 23:52 | 43.00605 | -70.83132 | 22933 ft | 408 kts | 214° |
| 2026-05-03 23:53 | 42.98079 | -70.84938 | 23450 ft | 411 kts | 214° |
| 2026-05-03 23:53 | 42.95544 | -70.86750 | 23960 ft | 413 kts | 214° |
| 2026-05-03 23:53 | 42.92993 | -70.88573 | 24461 ft | 414 kts | 213° |
| 2026-05-03 23:53 | 42.90432 | -70.90401 | 24980 ft | 417 kts | 213° |
| 2026-05-03 23:54 | 42.87857 | -70.92237 | 25489 ft | 419 kts | 213° |
| 2026-05-03 23:54 | 42.85264 | -70.94085 | 25968 ft | 422 kts | 213° |
| 2026-05-03 23:54 | 42.82645 | -70.95820 | 26385 ft | 428 kts | 208° |
| 2026-05-03 23:54 | 42.79850 | -70.97256 | 26845 ft | 432 kts | 205° |
| 2026-05-03 23:55 | 42.77002 | -70.98615 | 27317 ft | 434 kts | 205° |
| 2026-05-03 23:55 | 42.74142 | -70.99983 | 27770 ft | 437 kts | 205° |
| 2026-05-03 23:55 | 42.71271 | -71.01368 | 28228 ft | 439 kts | 205° |
| 2026-05-03 23:55 | 42.68387 | -71.02766 | 28672 ft | 441 kts | 205° |
| 2026-05-03 23:56 | 42.65493 | -71.04171 | 29197 ft | 441 kts | 205° |
| 2026-05-03 23:56 | 42.62651 | -71.05547 | 29864 ft | 438 kts | 205° |
| 2026-05-03 23:56 | 42.59794 | -71.06931 | 30403 ft | 435 kts | 205° |
| 2026-05-03 23:56 | 42.56946 | -71.08309 | 30844 ft | 435 kts | 205° |
| 2026-05-03 23:57 | 42.54103 | -71.09686 | 31291 ft | 433 kts | 205° |
| 2026-05-03 23:57 | 42.51267 | -71.11057 | 31744 ft | 432 kts | 204° |
| 2026-05-03 23:57 | 42.48431 | -71.12429 | 31933 ft | 437 kts | 204° |
| 2026-05-03 23:57 | 42.45533 | -71.13831 | 31934 ft | 447 kts | 204° |
| 2026-05-03 23:58 | 42.39910 | -71.17388 | 31907 ft | 444 kts | 219° |
| 2026-05-03 23:58 | 42.34942 | -71.22263 | 31842 ft | 444 kts | 221° |
| 2026-05-03 23:59 | 42.29959 | -71.27220 | 31836 ft | 445 kts | 220° |
| 2026-05-03 23:59 | 42.24978 | -71.32150 | 31832 ft | 442 kts | 221° |
| 2026-05-04 00:00 | 42.20043 | -71.37023 | 31850 ft | 443 kts | 221° |
| 2026-05-04 00:00 | 42.15067 | -71.41922 | 31869 ft | 443 kts | 221° |
| 2026-05-04 00:01 | 42.10087 | -71.46816 | 31861 ft | 442 kts | 221° |
| 2026-05-04 00:01 | 42.05118 | -71.51691 | 31880 ft | 442 kts | 221° |
| 2026-05-04 00:02 | 42.00185 | -71.56522 | 31900 ft | 442 kts | 221° |
| 2026-05-04 00:02 | 41.95202 | -71.61390 | 31897 ft | 443 kts | 221° |
| 2026-05-04 00:03 | 41.90234 | -71.66231 | 31896 ft | 440 kts | 221° |
| 2026-05-04 00:03 | 41.85278 | -71.71057 | 31891 ft | 440 kts | 221° |
| 2026-05-04 00:04 | 41.80347 | -71.75847 | 31887 ft | 440 kts | 221° |
| 2026-05-04 00:04 | 41.75384 | -71.80658 | 31882 ft | 439 kts | 221° |
| 2026-05-04 00:05 | 41.70434 | -71.85446 | 31887 ft | 440 kts | 221° |
| 2026-05-04 00:05 | 41.65471 | -71.90239 | 31886 ft | 440 kts | 221° |
| 2026-05-04 00:06 | 41.60523 | -71.95008 | 31890 ft | 438 kts | 221° |
| 2026-05-04 00:06 | 41.55574 | -71.99677 | 31894 ft | 441 kts | 216° |
| 2026-05-04 00:07 | 41.50117 | -72.03527 | 31885 ft | 445 kts | 213° |
| 2026-05-04 00:07 | 41.44617 | -72.07283 | 31909 ft | 444 kts | 213° |
| 2026-05-04 00:08 | 41.39119 | -72.11039 | 31905 ft | 444 kts | 213° |
| 2026-05-04 00:08 | 41.33660 | -72.14768 | 31908 ft | 444 kts | 213° |
| 2026-05-04 00:09 | 41.28163 | -72.18514 | 31906 ft | 444 kts | 213° |
| 2026-05-04 00:09 | 41.24652 | -72.20905 | 31899 ft | 444 kts | 213° |
| 2026-05-04 00:10 | 41.21895 | -72.22780 | 31626 ft | 447 kts | 213° |
| 2026-05-04 00:10 | 41.19142 | -72.24648 | 31260 ft | 444 kts | 213° |
| 2026-05-04 00:10 | 41.16429 | -72.26487 | 30911 ft | 444 kts | 213° |
| 2026-05-04 00:10 | 41.13680 | -72.28350 | 30575 ft | 444 kts | 213° |
| 2026-05-04 00:11 | 41.10921 | -72.30217 | 30238 ft | 445 kts | 213° |
| 2026-05-04 00:11 | 41.08174 | -72.32073 | 29882 ft | 442 kts | 213° |
| 2026-05-04 00:11 | 41.05439 | -72.33919 | 29471 ft | 439 kts | 213° |
| 2026-05-04 00:11 | 41.02721 | -72.35751 | 29004 ft | 436 kts | 213° |
| 2026-05-04 00:12 | 41.00029 | -72.37564 | 28566 ft | 432 kts | 213° |
| 2026-05-04 00:12 | 40.97358 | -72.39364 | 28148 ft | 429 kts | 214° |
| 2026-05-04 00:12 | 40.94704 | -72.41151 | 27729 ft | 427 kts | 214° |
| 2026-05-04 00:12 | 40.92066 | -72.42925 | 27318 ft | 424 kts | 214° |
| 2026-05-04 00:13 | 40.89480 | -72.44663 | 26936 ft | 422 kts | 213° |
| 2026-05-04 00:13 | 40.86866 | -72.46416 | 26475 ft | 420 kts | 213° |
| 2026-05-04 00:13 | 40.84272 | -72.48154 | 25964 ft | 417 kts | 214° |
| 2026-05-04 00:13 | 40.81702 | -72.49873 | 25494 ft | 411 kts | 214° |
| 2026-05-04 00:14 | 40.79162 | -72.51573 | 25039 ft | 409 kts | 214° |
| 2026-05-04 00:14 | 40.76631 | -72.53266 | 24584 ft | 406 kts | 214° |
| 2026-05-04 00:14 | 40.74120 | -72.54945 | 24149 ft | 404 kts | 214° |
| 2026-05-04 00:14 | 40.71620 | -72.56614 | 23724 ft | 402 kts | 214° |
| 2026-05-04 00:15 | 40.69223 | -72.58350 | 23263 ft | 393 kts | 222° |
| 2026-05-04 00:15 | 40.67210 | -72.60675 | 22785 ft | 382 kts | 231° |
| 2026-05-04 00:15 | 40.65327 | -72.63136 | 22299 ft | 380 kts | 232° |
| 2026-05-04 00:15 | 40.63464 | -72.65570 | 21852 ft | 377 kts | 231° |
| 2026-05-04 00:16 | 40.61602 | -72.67991 | 21418 ft | 375 kts | 231° |
| 2026-05-04 00:16 | 40.59746 | -72.70396 | 20980 ft | 374 kts | 231° |
| 2026-05-04 00:16 | 40.57896 | -72.72785 | 20554 ft | 372 kts | 231° |
| 2026-05-04 00:16 | 40.56053 | -72.75164 | 20133 ft | 371 kts | 231° |
| 2026-05-04 00:17 | 40.54243 | -72.77489 | 19973 ft | 366 kts | 231° |
| 2026-05-04 00:17 | 40.52418 | -72.79834 | 19992 ft | 368 kts | 231° |
| 2026-05-04 00:17 | 40.50559 | -72.82163 | 19995 ft | 370 kts | 229° |
| 2026-05-04 00:17 | 40.48653 | -72.84449 | 19972 ft | 371 kts | 229° |
| 2026-05-04 00:18 | 40.46753 | -72.86730 | 19954 ft | 369 kts | 229° |
| 2026-05-04 00:18 | 40.44862 | -72.89007 | 19956 ft | 369 kts | 229° |
| 2026-05-04 00:18 | 40.42972 | -72.91288 | 19957 ft | 369 kts | 229° |
| 2026-05-04 00:18 | 40.41079 | -72.93572 | 19961 ft | 369 kts | 229° |
| 2026-05-04 00:19 | 40.39215 | -72.95822 | 19951 ft | 370 kts | 229° |
| 2026-05-04 00:19 | 40.37320 | -72.98108 | 19953 ft | 370 kts | 229° |
| 2026-05-04 00:19 | 40.35424 | -73.00392 | 19953 ft | 370 kts | 229° |
| 2026-05-04 00:19 | 40.33530 | -73.02673 | 19961 ft | 370 kts | 229° |
| 2026-05-04 00:20 | 40.31635 | -73.04953 | 19960 ft | 370 kts | 229° |
| 2026-05-04 00:20 | 40.29730 | -73.07224 | 19961 ft | 369 kts | 229° |
| 2026-05-04 00:20 | 40.27831 | -73.09486 | 19960 ft | 369 kts | 229° |
| 2026-05-04 00:20 | 40.25931 | -73.11747 | 19972 ft | 369 kts | 229° |
| 2026-05-04 00:21 | 40.24033 | -73.14009 | 19974 ft | 369 kts | 229° |
| 2026-05-04 00:21 | 40.22141 | -73.16276 | 19974 ft | 369 kts | 229° |
| 2026-05-04 00:21 | 40.20248 | -73.18540 | 19973 ft | 369 kts | 229° |
| 2026-05-04 00:21 | 40.18380 | -73.20774 | 19981 ft | 369 kts | 229° |
| 2026-05-04 00:22 | 40.16485 | -73.23034 | 19982 ft | 369 kts | 229° |
| 2026-05-04 00:22 | 40.14589 | -73.25297 | 19978 ft | 369 kts | 229° |
| 2026-05-04 00:22 | 40.12693 | -73.27555 | 19978 ft | 369 kts | 229° |
| 2026-05-04 00:22 | 40.10799 | -73.29810 | 19995 ft | 368 kts | 229° |
| 2026-05-04 00:23 | 40.08907 | -73.32060 | 19995 ft | 368 kts | 228° |
| 2026-05-04 00:23 | 40.07012 | -73.34312 | 19993 ft | 368 kts | 228° |
| 2026-05-04 00:23 | 40.05114 | -73.36565 | 19990 ft | 369 kts | 228° |
| 2026-05-04 00:23 | 40.03216 | -73.38816 | 19998 ft | 369 kts | 228° |
| 2026-05-04 00:24 | 40.01345 | -73.41032 | 19998 ft | 369 kts | 228° |
| 2026-05-04 00:24 | 39.99446 | -73.43281 | 19997 ft | 369 kts | 228° |
| 2026-05-04 00:24 | 39.97547 | -73.45527 | 20003 ft | 368 kts | 228° |
| 2026-05-04 00:24 | 39.95649 | -73.47772 | 20004 ft | 369 kts | 228° |
| 2026-05-04 00:25 | 39.93750 | -73.50016 | 19981 ft | 368 kts | 228° |
| 2026-05-04 00:25 | 39.91857 | -73.52249 | 19993 ft | 367 kts | 228° |
| 2026-05-04 00:25 | 39.90004 | -73.54525 | 20005 ft | 366 kts | 233° |
| 2026-05-04 00:25 | 39.88342 | -73.57049 | 20019 ft | 366 kts | 236° |
| 2026-05-04 00:26 | 39.86744 | -73.59624 | 19997 ft | 366 kts | 236° |
| 2026-05-04 00:26 | 39.85138 | -73.62194 | 20001 ft | 366 kts | 236° |
| 2026-05-04 00:26 | 39.83550 | -73.64729 | 20001 ft | 366 kts | 236° |
| 2026-05-04 00:26 | 39.81935 | -73.67298 | 20006 ft | 368 kts | 236° |
| 2026-05-04 00:27 | 39.80315 | -73.69872 | 20004 ft | 368 kts | 236° |
| 2026-05-04 00:27 | 39.78696 | -73.72438 | 20008 ft | 367 kts | 236° |
| 2026-05-04 00:27 | 39.77076 | -73.75007 | 20007 ft | 367 kts | 236° |
| 2026-05-04 00:27 | 39.75454 | -73.77572 | 19998 ft | 365 kts | 236° |
| 2026-05-04 00:28 | 39.73843 | -73.80118 | 20010 ft | 364 kts | 236° |
| 2026-05-04 00:28 | 39.72243 | -73.82647 | 19989 ft | 356 kts | 236° |
| 2026-05-04 00:28 | 39.70723 | -73.85035 | 19964 ft | 341 kts | 236° |
| 2026-05-04 00:28 | 39.69228 | -73.87397 | 19927 ft | 338 kts | 236° |
| 2026-05-04 00:29 | 39.67740 | -73.89744 | 19728 ft | 336 kts | 236° |
| 2026-05-04 00:29 | 39.66260 | -73.92077 | 19463 ft | 334 kts | 236° |
| 2026-05-04 00:29 | 39.64789 | -73.94392 | 19199 ft | 332 kts | 236° |
| 2026-05-04 00:29 | 39.63324 | -73.96696 | 18965 ft | 330 kts | 236° |
| 2026-05-04 00:30 | 39.61866 | -73.98989 | 18716 ft | 329 kts | 236° |
| 2026-05-04 00:30 | 39.60409 | -74.01278 | 18477 ft | 329 kts | 236° |
| 2026-05-04 00:30 | 39.58971 | -74.03529 | 18234 ft | 328 kts | 236° |
| 2026-05-04 00:30 | 39.57515 | -74.05808 | 17958 ft | 328 kts | 236° |
| 2026-05-04 00:31 | 39.56061 | -74.08081 | 17674 ft | 327 kts | 236° |
| 2026-05-04 00:31 | 39.54611 | -74.10350 | 17371 ft | 328 kts | 236° |
| 2026-05-04 00:31 | 39.53293 | -74.12740 | 16845 ft | 323 kts | 247° |
| 2026-05-04 00:31 | 39.52608 | -74.15450 | 16346 ft | 314 kts | 264° |
| 2026-05-04 00:32 | 39.52552 | -74.18244 | 15882 ft | 309 kts | 273° |
| 2026-05-04 00:32 | 39.52602 | -74.21027 | 15387 ft | 309 kts | 273° |
| 2026-05-04 00:32 | 39.52659 | -74.23804 | 14842 ft | 309 kts | 274° |
| 2026-05-04 00:32 | 39.52694 | -74.26540 | 14251 ft | 307 kts | 272° |
| 2026-05-04 00:33 | 39.52696 | -74.29296 | 13640 ft | 304 kts | 273° |
| 2026-05-04 00:33 | 39.52745 | -74.34544 | 12363 ft | 275 kts | 275° |
| 2026-05-04 00:33 | 39.52787 | -74.36996 | 11782 ft | 274 kts | 275° |
| 2026-05-04 00:34 | 39.52830 | -74.39463 | 11233 ft | 276 kts | 275° |
| 2026-05-04 00:34 | 39.52876 | -74.41951 | 10690 ft | 277 kts | 275° |
| 2026-05-04 00:34 | 39.52921 | -74.44447 | 10155 ft | 277 kts | 276° |
| 2026-05-04 00:34 | 39.52966 | -74.46946 | 9602 ft | 278 kts | 276° |
| 2026-05-04 00:35 | 39.53012 | -74.49450 | 9021 ft | 278 kts | 275° |
| 2026-05-04 00:35 | 39.53048 | -74.51872 | 9018 ft | 260 kts | 275° |
| 2026-05-04 00:35 | 39.53085 | -74.54168 | 9009 ft | 257 kts | 276° |
| 2026-05-04 00:35 | 39.53127 | -74.56502 | 9019 ft | 261 kts | 275° |
| 2026-05-04 00:36 | 39.53168 | -74.58858 | 9015 ft | 263 kts | 275° |
| 2026-05-04 00:36 | 39.53208 | -74.61231 | 8995 ft | 263 kts | 275° |
| 2026-05-04 00:36 | 39.53247 | -74.63617 | 8848 ft | 265 kts | 275° |
| 2026-05-04 00:36 | 39.53283 | -74.65989 | 8691 ft | 263 kts | 275° |
| 2026-05-04 00:37 | 39.53320 | -74.68348 | 8539 ft | 261 kts | 275° |
| 2026-05-04 00:37 | 39.53356 | -74.70692 | 8343 ft | 261 kts | 275° |
| 2026-05-04 00:37 | 39.53392 | -74.73003 | 8107 ft | 259 kts | 275° |
| 2026-05-04 00:37 | 39.53428 | -74.75323 | 7862 ft | 256 kts | 275° |
| 2026-05-04 00:38 | 39.53463 | -74.77620 | 7629 ft | 254 kts | 275° |
| 2026-05-04 00:38 | 39.53500 | -74.79904 | 7400 ft | 253 kts | 275° |
| 2026-05-04 00:38 | 39.53535 | -74.82179 | 7175 ft | 252 kts | 275° |
| 2026-05-04 00:38 | 39.53572 | -74.84445 | 6948 ft | 250 kts | 274° |
| 2026-05-04 00:39 | 39.53605 | -74.86688 | 6729 ft | 249 kts | 274° |
| 2026-05-04 00:39 | 39.53637 | -74.88923 | 6512 ft | 247 kts | 274° |
| 2026-05-04 00:39 | 39.53670 | -74.91145 | 6290 ft | 246 kts | 274° |
| 2026-05-04 00:39 | 39.53702 | -74.93337 | 6063 ft | 246 kts | 275° |
| 2026-05-04 00:40 | 39.54001 | -74.95495 | 5806 ft | 243 kts | 292° |
| 2026-05-04 00:40 | 39.54868 | -74.97364 | 5596 ft | 243 kts | 310° |
| 2026-05-04 00:40 | 39.56147 | -74.98793 | 5382 ft | 244 kts | 321° |
| 2026-05-04 00:40 | 39.57515 | -75.00106 | 5169 ft | 245 kts | 321° |
| 2026-05-04 00:41 | 39.58892 | -75.01410 | 4953 ft | 245 kts | 322° |
| 2026-05-04 00:41 | 39.60270 | -75.02706 | 4731 ft | 243 kts | 322° |
| 2026-05-04 00:41 | 39.61616 | -75.03974 | 4495 ft | 234 kts | 322° |
| 2026-05-04 00:41 | 39.62873 | -75.05154 | 4306 ft | 216 kts | 322° |
| 2026-05-04 00:42 | 39.64031 | -75.06244 | 4097 ft | 197 kts | 321° |
| 2026-05-04 00:42 | 39.65093 | -75.07248 | 3949 ft | 180 kts | 321° |
| 2026-05-04 00:42 | 39.66113 | -75.08209 | 4053 ft | 189 kts | 324° |
| 2026-05-04 00:42 | 39.67396 | -75.08888 | 4115 ft | 210 kts | 344° |
| 2026-05-04 00:43 | 39.68891 | -75.08952 | 4117 ft | 221 kts | 1° |
| 2026-05-04 00:43 | 39.70438 | -75.08702 | 3943 ft | 224 kts | 3° |
| 2026-05-04 00:43 | 39.71962 | -75.08358 | 3987 ft | 224 kts | 11° |
| 2026-05-04 00:43 | 39.73382 | -75.07472 | 4028 ft | 233 kts | 31° |
| 2026-05-04 00:44 | 39.74574 | -75.06054 | 3978 ft | 238 kts | 41° |
| 2026-05-04 00:44 | 39.75686 | -75.04460 | 3987 ft | 238 kts | 44° |
| 2026-05-04 00:44 | 39.76789 | -75.02851 | 3979 ft | 238 kts | 43° |
| 2026-05-04 00:44 | 39.77893 | -75.01258 | 3979 ft | 235 kts | 43° |
| 2026-05-04 00:45 | 39.78986 | -74.99695 | 3979 ft | 235 kts | 42° |
| 2026-05-04 00:45 | 39.80092 | -74.98122 | 3981 ft | 236 kts | 43° |
| 2026-05-04 00:45 | 39.81206 | -74.96538 | 3900 ft | 237 kts | 43° |
| 2026-05-04 00:45 | 39.82316 | -74.94952 | 3798 ft | 237 kts | 43° |
| 2026-05-04 00:46 | 39.83381 | -74.93355 | 3691 ft | 237 kts | 45° |
| 2026-05-04 00:46 | 39.84663 | -74.92075 | 3579 ft | 231 kts | 25° |
| 2026-05-04 00:46 | 39.86044 | -74.91012 | 3485 ft | 230 kts | 26° |
| 2026-05-04 00:46 | 39.87471 | -74.90121 | 3361 ft | 225 kts | 8° |
| 2026-05-04 00:47 | 39.88950 | -74.90197 | 3255 ft | 196 kts | 345° |
| 2026-05-04 00:47 | 39.90241 | -74.90457 | 3159 ft | 183 kts | 345° |
| 2026-05-04 00:47 | 39.91440 | -74.90931 | 3075 ft | 177 kts | 337° |
| 2026-05-04 00:47 | 39.92466 | -74.91706 | 2966 ft | 170 kts | 303° |
| 2026-05-04 00:48 | 39.92548 | -74.93171 | 3023 ft | 168 kts | 259° |
| 2026-05-04 00:48 | 39.92390 | -74.94695 | 3001 ft | 169 kts | 276° |
| 2026-05-04 00:48 | 39.92622 | -74.96151 | 2973 ft | 167 kts | 280° |
| 2026-05-04 00:48 | 39.92411 | -74.97646 | 2990 ft | 172 kts | 255° |
| 2026-05-04 00:49 | 39.92042 | -74.99117 | 2984 ft | 172 kts | 259° |
| 2026-05-04 00:49 | 39.91788 | -75.00624 | 2981 ft | 169 kts | 261° |
| 2026-05-04 00:49 | 39.91500 | -75.02113 | 2985 ft | 170 kts | 258° |
| 2026-05-04 00:49 | 39.91200 | -75.03571 | 2966 ft | 155 kts | 260° |
| 2026-05-04 00:50 | 39.90957 | -75.04845 | 2781 ft | 137 kts | 261° |
| 2026-05-04 00:50 | 39.90732 | -75.05994 | 2586 ft | 126 kts | 259° |
| 2026-05-04 00:50 | 39.90522 | -75.07056 | 2414 ft | 120 kts | 260° |
| 2026-05-04 00:50 | 39.90317 | -75.08101 | 2249 ft | 118 kts | 260° |
| 2026-05-04 00:51 | 39.90113 | -75.09138 | 2089 ft | 118 kts | 260° |
| 2026-05-04 00:51 | 39.89909 | -75.10176 | 1931 ft | 118 kts | 259° |
| 2026-05-04 00:51 | 39.89705 | -75.11212 | 1766 ft | 118 kts | 259° |
| 2026-05-04 00:51 | 39.89501 | -75.12246 | 1607 ft | 118 kts | 259° |
| 2026-05-04 00:52 | 39.89298 | -75.13282 | 1442 ft | 118 kts | 258° |
| 2026-05-04 00:52 | 39.89092 | -75.14323 | 1282 ft | 118 kts | 258° |
| 2026-05-04 00:52 | 39.88887 | -75.15362 | 1121 ft | 119 kts | 258° |
| 2026-05-04 00:52 | 39.88681 | -75.16409 | 963 ft | 120 kts | 257° |
| 2026-05-04 00:53 | 39.88477 | -75.17472 | 787 ft | 121 kts | 258° |
| 2026-05-04 00:53 | 39.88279 | -75.18507 | 628 ft | 118 kts | 256° |
| 2026-05-04 00:53 | 39.88061 | -75.19549 | 474 ft | 121 kts | 255° |
| 2026-05-04 00:53 | 39.87854 | -75.20600 | 336 ft | 119 kts | 256° |
| 2026-05-04 00:54 | 39.87655 | -75.21632 | 188 ft | 119 kts | 256° |
| 2026-05-04 00:54 | 39.87444 | -75.22680 | 38 ft | 117 kts | 256° |
| 2026-05-04 00:54 | 39.87266 | -75.23576 | 23 ft | 87 kts | 255° |
| 2026-05-04 00:54 | 39.87144 | -75.24167 | 26 ft | 51 kts | 253° |
| 2026-05-04 00:55 | 39.87075 | -75.24521 | 23 ft | 34 kts | 257° |
| 2026-05-04 00:55 | 39.87052 | -75.24787 | 24 ft | 23 kts | 296° |
| 2026-05-04 00:55 | 39.87112 | -75.24833 | 24 ft | 2 kts | 345° |
| 2026-05-04 00:55 | 39.87114 | -75.24833 | 24 ft | 1 kts | 351° |
| 2026-05-04 00:56 | 39.87128 | -75.24818 | 23 ft | 6 kts | 59° |
| 2026-05-04 00:56 | 39.87150 | -75.24730 | 23 ft | 15 kts | 75° |
| 2026-05-04 00:56 | 39.87182 | -75.24569 | 23 ft | 21 kts | 76° |
| 2026-05-04 00:56 | 39.87214 | -75.24394 | 23 ft | 15 kts | 75° |
| 2026-05-04 00:57 | 39.87241 | -75.24272 | 23 ft | 12 kts | 74° |
| 2026-05-04 00:57 | 39.87279 | -75.24194 | 23 ft | 11 kts | 19° |
| 2026-05-04 00:57 | 39.87319 | -75.24210 | 23 ft | 2 kts | 331° |
| 2026-05-04 00:57 | 39.87324 | -75.24213 | 23 ft | 1 kts | 335° |
| 2026-05-04 00:58 | 39.87340 | -75.24221 | 25 ft | 4 kts | 341° |
| 2026-05-04 00:58 | 39.87370 | -75.24230 | 23 ft | 2 kts | 353° |
| 2026-05-04 00:58 | 39.87393 | -75.24234 | 23 ft | 5 kts | 352° |
| 2026-05-04 00:58 | 39.87430 | -75.24240 | 23 ft | 5 kts | 352° |
| 2026-05-04 00:59 | 39.87456 | -75.24238 | 23 ft | 2 kts | 46° |
| 2026-05-04 00:59 | 39.87464 | -75.24216 | 26 ft | 3 kts | 72° |
| 2026-05-04 00:59 | 39.87470 | -75.24190 | 23 ft | 2 kts | 75° |
| 2026-05-04 00:59 | 39.87472 | -75.24179 | 23 ft | 2 kts | 75° |